Time;durP1;ratioP1;P1;durP2;ratioP2;P2;SDS_P1;SDS_P2;PMS_P1;PMS_P2;Temp;Humidity;BMP_temperature;BMP_pressure;BME280_temperature;BME280_humidity;BME280_pressure;Samples;Min_cycle;Max_cycle;Signal;HPM_P1;HPM_P2
2022/03/05 00:03:02;;;;;;;27.27;16.30;;;;;;;2.12;38.72;101017.59;10361366;28;20539;-80
2022/03/05 00:08:06;;;;;;;28.17;14.67;;;;;;;1.74;39.39;101021.59;10375789;28;20205;-79
2022/03/05 00:13:08;;;;;;;26.70;15.13;;;;;;;1.69;38.98;101012.38;10336758;28;20530;-80
2022/03/05 00:18:11;;;;;;;26.67;14.33;;;;;;;1.99;38.78;101023.69;10334146;28;20210;-79
2022/03/05 00:23:16;;;;;;;25.93;14.33;;;;;;;2.00;38.26;101033.72;10334329;28;20246;-79
2022/03/05 00:28:20;;;;;;;23.43;13.77;;;;;;;1.68;38.84;101030.22;10337767;28;20201;-79
2022/03/05 00:33:23;;;;;;;24.20;13.43;;;;;;;2.08;37.90;101038.75;10329993;28;20229;-86
2022/03/05 00:38:25;;;;;;;24.20;13.30;;;;;;;2.05;37.94;101038.47;10333557;28;20202;-86
2022/03/05 00:43:27;;;;;;;27.57;15.03;;;;;;;1.41;39.39;101039.53;10317683;28;20280;-84
2022/03/05 00:48:29;;;;;;;31.20;16.17;;;;;;;1.83;38.45;101030.28;10333937;28;20233;-87
2022/03/05 00:53:31;;;;;;;26.93;15.83;;;;;;;2.03;38.39;101023.97;10333627;28;20241;-84
2022/03/05 00:58:34;;;;;;;30.83;15.40;;;;;;;1.84;38.44;101027.22;10333245;28;20206;-80
2022/03/05 01:03:36;;;;;;;28.33;14.77;;;;;;;2.05;38.12;101022.56;10334221;28;20221;-87
2022/03/05 01:08:38;;;;;;;25.97;14.13;;;;;;;1.69;38.58;101018.78;10308942;28;20202;-86
2022/03/05 01:13:42;;;;;;;23.73;13.57;;;;;;;1.94;38.10;101026.44;10333016;28;20630;-86
2022/03/05 01:18:44;;;;;;;23.17;14.17;;;;;;;1.92;37.78;101017.50;10335823;28;20198;-81
2022/03/05 01:23:47;;;;;;;25.73;14.83;;;;;;;1.76;37.91;101013.81;10358455;28;20260;-84
2022/03/05 01:28:49;;;;;;;28.23;15.07;;;;;;;1.80;38.37;101008.50;10361531;28;20202;-86
2022/03/05 01:33:51;;;;;;;24.73;13.93;;;;;;;1.69;38.21;101010.44;10332290;28;20575;-83
2022/03/05 01:38:53;;;;;;;24.60;14.10;;;;;;;1.44;38.69;101011.16;10331617;28;20205;-86
2022/03/05 01:43:56;;;;;;;27.37;13.53;;;;;;;1.32;38.81;101018.03;10331183;28;20253;-86
2022/03/05 01:48:58;;;;;;;24.17;13.77;;;;;;;1.33;38.81;101014.16;10332064;28;20248;-87
2022/03/05 01:54:00;;;;;;;24.73;14.33;;;;;;;1.39;38.71;101013.94;10331201;28;20210;-87
2022/03/05 01:59:03;;;;;;;23.73;13.10;;;;;;;1.38;38.28;101012.25;10330924;28;20237;-85
2022/03/05 02:04:05;;;;;;;25.83;13.93;;;;;;;1.36;38.01;101010.84;10329399;28;20221;-84
2022/03/05 02:09:08;;;;;;;21.83;12.70;;;;;;;1.39;38.68;101002.78;10330616;28;20653;-87
2022/03/05 02:14:10;;;;;;;28.40;13.87;;;;;;;1.31;38.36;100989.34;10329557;28;20238;-83
2022/03/05 02:19:12;;;;;;;22.33;11.87;;;;;;;1.42;38.22;100984.66;10330845;28;20487;-87
2022/03/05 02:24:31;;;;;;;24.33;13.50;;;;;;;1.23;38.25;100991.81;10330788;28;20241;-87
2022/03/05 02:29:34;;;;;;;27.00;13.23;;;;;;;1.52;37.95;100991.13;10331035;28;20201;-86
2022/03/05 02:34:36;;;;;;;24.73;12.63;;;;;;;1.31;38.52;101000.50;10333248;28;20194;-86
2022/03/05 02:39:40;;;;;;;25.13;13.70;;;;;;;1.43;38.01;100984.41;10332211;28;20542;-85
2022/03/05 02:44:43;;;;;;;22.90;13.03;;;;;;;1.47;37.77;100985.53;10322799;28;20221;-83
2022/03/05 02:49:47;;;;;;;29.37;12.67;;;;;;;1.35;38.18;100979.34;10329552;28;20198;-87
2022/03/05 02:54:49;;;;;;;26.50;12.67;;;;;;;1.29;37.92;100974.84;10328846;28;20237;-86
2022/03/05 02:59:51;;;;;;;26.77;13.83;;;;;;;1.38;37.59;100984.38;10328303;28;20261;-82
2022/03/05 03:04:54;;;;;;;26.67;13.90;;;;;;;0.90;38.51;100982.69;10351671;28;20214;-84
2022/03/05 03:09:58;;;;;;;25.83;13.30;;;;;;;0.97;38.35;100986.09;10351376;28;20492;-85
2022/03/05 03:15:07;;;;;;;23.17;12.67;;;;;;;1.20;38.11;100971.75;10328075;28;20225;-86
2022/03/05 03:20:11;;;;;;;26.60;12.07;;;;;;;1.23;37.85;100969.53;10316614;28;20224;-85
2022/03/05 03:25:13;;;;;;;26.67;13.27;;;;;;;0.96;38.29;100976.06;10314857;28;20668;-85
2022/03/05 03:30:16;;;;;;;25.03;12.63;;;;;;;0.62;38.87;100981.09;10327669;28;20225;-85
2022/03/05 03:35:19;;;;;;;29.47;14.60;;;;;;;0.88;38.37;100984.91;10330790;28;20206;-86
2022/03/05 03:40:22;;;;;;;24.57;12.43;;;;;;;0.34;39.00;100984.19;10328920;28;20574;-86
2022/03/05 03:45:24;;;;;;;24.37;12.60;;;;;;;1.04;38.02;100983.06;10336162;28;20558;-86
2022/03/05 03:50:26;;;;;;;24.37;11.73;;;;;;;0.90;38.48;100982.69;10336068;28;20198;-87
2022/03/05 03:55:28;;;;;;;25.03;12.63;;;;;;;1.06;37.71;100978.06;10334820;28;20248;-86
2022/03/05 04:00:31;;;;;;;28.90;13.23;;;;;;;0.31;39.17;100979.16;10335114;28;20201;-86
2022/03/05 04:05:33;;;;;;;23.23;11.50;;;;;;;0.92;38.17;100990.78;10331150;28;20226;-87
2022/03/05 04:10:35;;;;;;;27.17;13.20;;;;;;;0.99;38.06;100991.41;10336080;28;20201;-86
2022/03/05 04:15:38;;;;;;;24.63;12.17;;;;;;;0.80;38.28;100990.97;10335596;28;20229;-86
2022/03/05 04:20:40;;;;;;;27.03;13.03;;;;;;;0.90;38.16;100993.81;10337218;28;20213;-85
2022/03/05 04:25:43;;;;;;;28.93;13.47;;;;;;;1.10;37.25;100993.97;10336165;28;20307;-85
2022/03/05 04:30:46;;;;;;;24.77;12.10;;;;;;;0.86;37.89;100994.66;10336132;28;20260;-86
2022/03/05 04:35:48;;;;;;;30.60;13.07;;;;;;;1.05;37.53;100999.50;10362336;28;20267;-86
2022/03/05 04:40:50;;;;;;;26.03;13.00;;;;;;;1.12;37.13;100997.34;10360483;28;20263;-81
2022/03/05 04:45:52;;;;;;;29.70;13.47;;;;;;;0.87;37.35;100999.09;10358005;28;20318;-84
2022/03/05 04:50:55;;;;;;;25.40;12.07;;;;;;;1.15;37.32;101001.50;10374964;28;20201;-86
2022/03/05 04:55:57;;;;;;;25.33;12.00;;;;;;;1.01;37.57;100989.16;10346045;28;20676;-86
2022/03/05 05:00:59;;;;;;;22.70;11.27;;;;;;;0.78;37.68;101002.38;10337756;28;20232;-87
2022/03/05 05:06:02;;;;;;;27.23;12.90;;;;;;;0.88;38.12;101000.75;10334091;28;20222;-85
2022/03/05 05:11:05;;;;;;;25.80;11.73;;;;;;;1.14;37.40;100994.25;10320553;28;20599;-88
2022/03/05 05:16:08;;;;;;;28.50;12.37;;;;;;;1.07;37.27;101000.06;10319901;28;20355;-86
2022/03/05 05:21:10;;;;;;;25.50;12.90;;;;;;;1.16;36.99;101017.94;10339011;28;20205;-83
2022/03/05 05:26:12;;;;;;;26.23;12.20;;;;;;;0.93;37.37;101014.72;10345659;28;20233;-83
2022/03/05 05:31:15;;;;;;;26.30;12.63;;;;;;;0.97;37.25;101024.22;10380842;28;20239;-86
2022/03/05 05:36:17;;;;;;;25.87;12.70;;;;;;;0.68;37.66;101021.78;10381157;28;20189;-83
2022/03/05 05:41:21;;;;;;;24.33;12.07;;;;;;;0.60;37.93;101015.88;10339128;28;20283;-86
2022/03/05 05:46:23;;;;;;;25.07;12.67;;;;;;;0.63;38.10;101013.38;10328214;28;20249;-85
2022/03/05 05:51:29;;;;;;;23.80;12.57;;;;;;;0.76;37.59;101009.31;10330589;28;20586;-85
2022/03/05 05:56:31;;;;;;;24.60;12.33;;;;;;;0.71;37.81;101010.13;10311535;28;20225;-84
2022/03/05 06:01:34;;;;;;;27.73;13.47;;;;;;;0.69;37.83;101009.53;10328873;28;20552;-85
2022/03/05 06:06:37;;;;;;;27.00;12.20;;;;;;;0.86;37.78;101008.56;10311531;28;20270;-90
2022/03/05 06:11:39;;;;;;;25.20;13.23;;;;;;;0.74;37.68;101006.81;10318145;28;20234;-88
2022/03/05 06:16:42;;;;;;;25.20;12.87;;;;;;;0.79;37.78;101004.06;10313646;28;20280;-81
2022/03/05 06:21:45;;;;;;;24.83;13.10;;;;;;;0.59;37.97;101001.13;10314604;28;20227;-87
2022/03/05 06:26:47;;;;;;;26.90;12.57;;;;;;;0.60;38.14;101004.75;10304987;28;20336;-85
2022/03/05 06:31:51;;;;;;;24.67;12.83;;;;;;;0.36;38.53;101001.44;10308509;28;20629;-88
2022/03/05 06:36:54;;;;;;;29.50;14.27;;;;;;;0.02;39.13;101009.97;10309491;28;20229;-88
2022/03/05 06:41:57;;;;;;;26.97;13.90;;;;;;;0.08;38.58;101020.06;10313109;28;20229;-87
2022/03/05 06:46:59;;;;;;;28.80;13.07;;;;;;;0.25;38.58;101017.16;10322863;28;20249;-88
2022/03/05 06:52:02;;;;;;;24.80;12.60;;;;;;;0.63;38.10;101021.72;10312481;28;20555;-86
2022/03/05 06:57:04;;;;;;;24.37;12.53;;;;;;;0.16;39.15;101024.31;10319630;28;20280;-89
2022/03/05 07:02:08;;;;;;;29.20;13.83;;;;;;;0.75;37.69;101018.75;10327784;28;20233;-86
2022/03/05 07:07:10;;;;;;;26.27;13.37;;;;;;;0.52;38.42;101025.53;10323959;28;20236;-88
2022/03/05 07:12:13;;;;;;;29.80;13.60;;;;;;;0.50;38.74;101024.94;10328408;28;20249;-87
2022/03/05 07:17:16;;;;;;;30.67;13.87;;;;;;;0.81;38.33;101032.47;10325191;28;20316;-89
2022/03/05 07:22:18;;;;;;;28.07;12.67;;;;;;;1.09;37.90;101036.84;10311990;28;20233;-88
2022/03/05 07:27:20;;;;;;;30.23;12.90;;;;;;;1.01;38.33;101050.41;10320191;28;20582;-86
2022/03/05 07:32:22;;;;;;;27.77;13.60;;;;;;;0.83;38.48;101051.69;10322746;28;20260;-87
2022/03/05 07:37:26;;;;;;;30.93;13.07;;;;;;;1.40;37.81;101049.00;10324508;28;20279;-86
2022/03/05 07:42:28;;;;;;;27.13;13.60;;;;;;;1.20;38.44;101055.31;10332971;28;20257;-87
2022/03/05 07:47:30;;;;;;;29.77;14.60;;;;;;;1.14;38.65;101064.72;10324570;28;20253;-89
2022/03/05 07:52:50;;;;;;;30.07;14.90;;;;;;;1.42;38.37;101062.69;10345385;28;20233;-88
2022/03/05 07:57:52;;;;;;;27.47;13.23;;;;;;;1.92;37.53;101056.53;10334759;28;20209;-86
2022/03/05 08:02:54;;;;;;;28.67;13.60;;;;;;;2.39;36.83;101061.16;10352688;28;20232;-86
2022/03/05 08:07:57;;;;;;;25.53;13.80;;;;;;;2.32;37.06;101077.31;10344873;28;20245;-86
2022/03/05 08:12:59;;;;;;;25.50;13.63;;;;;;;2.34;37.12;101075.09;10338900;28;20277;-84
2022/03/05 08:18:02;;;;;;;24.17;12.97;;;;;;;2.87;36.41;101080.22;10335071;28;20233;-85
2022/03/05 08:23:08;;;;;;;29.30;14.53;;;;;;;2.88;36.33;101076.31;10327460;28;20278;-86
2022/03/05 08:28:36;;;;;;;25.47;12.97;;;;;;;3.04;36.32;101076.31;10329055;28;20276;-86
2022/03/05 08:33:42;;;;;;;24.97;11.97;;;;;;;3.26;35.81;101074.91;10334470;28;20561;-87
2022/03/05 08:38:44;;;;;;;21.90;12.00;;;;;;;3.46;34.69;101088.03;10332090;28;20205;-86
2022/03/05 08:43:46;;;;;;;23.60;11.53;;;;;;;3.39;35.29;101076.28;10333481;28;20264;-88
2022/03/05 08:48:48;;;;;;;24.40;11.60;;;;;;;4.23;33.76;101058.66;10338709;28;20610;-87
2022/03/05 08:53:52;;;;;;;22.33;11.83;;;;;;;4.31;33.64;101066.44;10317871;28;20293;-88
2022/03/05 08:58:54;;;;;;;23.70;11.57;;;;;;;3.84;34.48;101068.94;10331580;28;20230;-86
2022/03/05 09:04:02;;;;;;;22.10;12.03;;;;;;;4.77;33.44;101054.97;10303874;28;20242;-87
2022/03/05 09:09:05;;;;;;;21.67;11.77;;;;;;;5.27;32.51;101055.69;10320679;28;20256;-81
2022/03/05 09:14:08;;;;;;;21.37;12.67;;;;;;;5.53;32.40;101043.06;10331366;28;20257;-83
2022/03/05 09:19:10;;;;;;;17.87;9.97;;;;;;;5.53;31.75;101053.44;10316440;28;20228;-84
2022/03/05 09:24:12;;;;;;;18.40;10.73;;;;;;;5.18;32.12;101057.44;10333708;28;20282;-84
2022/03/05 09:29:16;;;;;;;20.07;10.87;;;;;;;5.31;31.70;101051.13;10324797;28;20233;-87
2022/03/05 09:34:18;;;;;;;17.50;9.77;;;;;;;5.57;30.77;101038.50;10326677;28;20238;-87
2022/03/05 09:39:21;;;;;;;18.50;10.33;;;;;;;6.35;30.08;101035.28;10327434;28;20237;-87
2022/03/05 09:44:27;;;;;;;16.37;9.20;;;;;;;6.29;29.90;101041.31;10328009;28;20249;-86
2022/03/05 09:49:29;;;;;;;15.37;8.90;;;;;;;5.86;30.10;101046.06;10325827;28;20672;-85
2022/03/05 09:54:34;;;;;;;15.93;8.53;;;;;;;5.92;29.12;101042.09;10330491;28;20242;-87
2022/03/05 09:59:38;;;;;;;15.20;8.93;;;;;;;6.22;28.42;101046.44;10316611;28;20296;-85
2022/03/05 10:04:43;;;;;;;12.97;8.43;;;;;;;5.53;30.60;101048.69;10327176;28;20252;-87
2022/03/05 10:09:47;;;;;;;15.83;8.33;;;;;;;6.18;28.96;101037.81;10329654;28;20233;-82
2022/03/05 10:15:06;;;;;;;13.67;9.30;;;;;;;7.60;27.21;101035.47;10332117;28;20257;-86
2022/03/05 10:20:09;;;;;;;14.20;9.37;;;;;;;7.39;27.55;101034.16;10325947;28;20237;-82
2022/03/05 10:25:12;;;;;;;13.33;8.57;;;;;;;6.34;28.46;101035.59;10304360;28;20226;-83
2022/03/05 10:30:27;;;;;;;14.67;9.03;;;;;;;6.79;28.03;101037.75;10325353;28;20237;-85
2022/03/05 10:35:30;;;;;;;13.27;8.80;;;;;;;7.01;28.08;101027.81;10332772;28;20301;-83
2022/03/05 10:40:34;;;;;;;15.27;9.03;;;;;;;8.15;26.10;101018.53;10324027;28;20233;-81
2022/03/05 10:45:58;;;;;;;15.50;8.20;;;;;;;8.29;26.00;101025.00;10307616;28;20254;-86
2022/03/05 10:51:12;;;;;;;16.40;9.60;;;;;;;7.58;26.85;101029.31;10323994;28;20241;-86
2022/03/05 10:56:32;;;;;;;14.60;8.83;;;;;;;6.50;26.97;101023.84;10323917;28;20221;-81
2022/03/05 11:01:59;;;;;;;13.87;8.10;;;;;;;6.35;27.15;101029.69;10310224;28;20229;-86
2022/03/05 11:07:17;;;;;;;15.50;8.93;;;;;;;7.28;25.69;101018.63;10319153;28;20268;-85
2022/03/05 11:12:25;;;;;;;13.80;8.27;;;;;;;7.77;24.49;101015.97;10316484;28;20252;-85
2022/03/05 11:17:30;;;;;;;14.63;8.10;;;;;;;7.30;24.81;101021.97;10364966;28;20259;-83
2022/03/05 11:22:38;;;;;;;12.50;7.93;;;;;;;7.49;25.24;101009.50;10374202;28;20205;-86
2022/03/05 11:27:57;;;;;;;13.53;7.83;;;;;;;8.39;23.15;100993.78;10350175;28;20567;-86
2022/03/05 11:33:01;;;;;;;14.33;7.50;;;;;;;7.85;22.92;101008.81;10362103;28;20233;-84
2022/03/05 11:38:04;;;;;;;11.20;7.27;;;;;;;7.40;24.19;101010.50;10352944;28;20226;-82
2022/03/05 11:43:41;;;;;;;9.50;6.43;;;;;;;7.98;23.00;100991.06;10340135;28;20676;-85
2022/03/05 11:48:59;;;;;;;10.63;6.90;;;;;;;8.55;21.18;100992.25;10334417;28;20253;-85
2022/03/05 11:54:12;;;;;;;11.70;6.93;;;;;;;8.03;23.18;100982.47;10356267;28;20598;-83
2022/03/05 11:59:36;;;;;;;10.67;7.07;;;;;;;7.86;22.99;100977.53;10347859;28;20294;-82
2022/03/05 12:04:46;;;;;;;10.87;6.37;;;;;;;8.55;21.15;100968.88;10318083;28;20233;-83
2022/03/05 12:09:54;;;;;;;10.80;6.83;;;;;;;8.05;21.98;100970.91;10319040;28;20249;-84
2022/03/05 12:14:59;;;;;;;11.87;7.13;;;;;;;8.31;21.61;100966.34;10353720;28;20252;-86
2022/03/05 12:20:06;;;;;;;11.30;7.53;;;;;;;9.68;20.06;100954.31;10354714;28;20334;-86
2022/03/05 12:25:10;;;;;;;9.93;6.30;;;;;;;8.45;21.71;100953.06;10332788;28;20265;-86
2022/03/05 12:30:13;;;;;;;11.93;7.20;;;;;;;8.04;21.65;100955.16;10332951;28;20887;-85
2022/03/05 12:35:17;;;;;;;12.40;7.07;;;;;;;9.81;20.76;100944.88;10354937;28;20221;-85
2022/03/05 12:40:23;;;;;;;10.57;6.40;;;;;;;8.55;21.69;100952.78;10305912;28;20291;-84
2022/03/05 12:45:27;;;;;;;13.03;7.33;;;;;;;8.26;21.37;100955.22;10349740;28;20240;-85
2022/03/05 12:50:34;;;;;;;8.53;6.27;;;;;;;9.43;20.18;100949.38;10330306;28;20342;-85
2022/03/05 12:55:42;;;;;;;9.60;7.03;;;;;;;9.76;20.38;100936.56;10324800;28;20229;-81
2022/03/05 13:00:46;;;;;;;10.13;6.40;;;;;;;9.65;19.97;100943.66;10308786;28;20232;-80
2022/03/05 13:05:52;;;;;;;10.33;6.97;;;;;;;10.30;18.97;100931.47;10327533;28;20249;-80
2022/03/05 13:11:06;;;;;;;11.80;7.73;;;;;;;10.03;19.98;100926.97;10333043;28;20280;-81
2022/03/05 13:16:10;;;;;;;9.63;6.93;;;;;;;9.18;20.38;100939.63;10327856;28;20299;-81
2022/03/05 13:21:13;;;;;;;11.93;7.33;;;;;;;10.11;19.92;100931.78;10325602;28;20607;-80
2022/03/05 13:26:16;;;;;;;10.10;7.27;;;;;;;9.78;20.25;100928.59;10314886;28;20245;-80
2022/03/05 13:31:27;;;;;;;10.53;7.30;;;;;;;9.97;19.72;100934.75;10323926;28;20283;-79
2022/03/05 13:36:41;;;;;;;13.27;7.27;;;;;;;10.09;19.22;100932.09;10332122;28;20225;-77
2022/03/05 13:41:48;;;;;;;15.53;7.30;;;;;;;10.06;19.34;100929.97;10312193;28;20233;-77
2022/03/05 13:46:52;;;;;;;12.40;7.20;;;;;;;9.09;19.82;100931.13;10320275;28;20341;-76
2022/03/05 13:52:04;;;;;;;32.17;8.23;;;;;;;10.68;19.37;100929.66;10314857;28;20230;-79
2022/03/05 13:57:11;;;;;;;11.83;7.50;;;;;;;10.02;19.87;100930.94;10320232;28;20198;-79
2022/03/05 14:02:15;;;;;;;10.30;6.60;;;;;;;10.03;19.93;100933.44;10326038;28;20199;-79
2022/03/05 14:07:17;;;;;;;9.20;6.53;;;;;;;10.00;19.39;100922.81;10308525;28;20249;-84
2022/03/05 14:12:25;;;;;;;9.13;6.50;;;;;;;11.04;18.31;100917.09;10321920;28;20280;-85
2022/03/05 14:18:20;;;;;;;8.57;6.40;;;;;;;10.13;18.50;100921.00;10321457;28;20256;-84
2022/03/05 14:23:23;;;;;;;9.33;6.50;;;;;;;10.64;19.62;100908.84;10307845;28;20217;-81
2022/03/05 14:28:27;;;;;;;10.03;6.40;;;;;;;10.31;19.41;100917.00;10319493;28;20315;-85
2022/03/05 14:33:30;;;;;;;10.00;6.47;;;;;;;9.02;20.35;100919.47;10324959;28;20225;-85
2022/03/05 14:38:32;;;;;;;9.83;6.70;;;;;;;9.83;19.35;100905.84;10328248;28;20202;-85
2022/03/05 14:43:36;;;;;;;10.70;6.97;;;;;;;8.51;20.57;100914.31;10305961;28;20242;-82
2022/03/05 14:48:38;;;;;;;9.07;6.70;;;;;;;9.71;18.97;100909.28;10328587;28;20268;-85
2022/03/05 14:53:44;;;;;;;8.83;5.73;;;;;;;10.50;18.38;100915.84;10319046;28;20249;-85
2022/03/05 14:58:47;;;;;;;8.20;6.03;;;;;;;9.89;19.57;100913.00;10312510;28;20225;-86
2022/03/05 15:03:50;;;;;;;8.13;5.57;;;;;;;10.45;17.99;100908.38;10325726;28;20750;-86
2022/03/05 15:08:52;;;;;;;8.80;5.67;;;;;;;10.07;17.87;100894.91;10319514;28;20260;-84
2022/03/05 15:13:57;;;;;;;8.33;5.70;;;;;;;8.49;21.02;100909.00;10323285;28;20266;-87
2022/03/05 15:19:00;;;;;;;8.83;5.87;;;;;;;10.53;18.64;100896.25;10304644;28;20374;-85
2022/03/05 15:24:02;;;;;;;9.67;5.90;;;;;;;9.41;19.80;100900.88;10301731;28;20283;-85
2022/03/05 15:29:05;;;;;;;8.73;6.07;;;;;;;9.76;19.36;100899.84;10327136;28;20653;-85
2022/03/05 15:34:07;;;;;;;9.73;6.47;;;;;;;10.06;19.12;100898.91;10292426;28;20230;-82
2022/03/05 15:39:10;;;;;;;8.03;6.33;;;;;;;8.81;22.21;100893.81;10291887;28;20239;-87
2022/03/05 15:44:13;;;;;;;10.00;6.77;;;;;;;8.83;20.89;100899.97;10311672;28;20254;-86
2022/03/05 15:49:17;;;;;;;9.37;6.23;;;;;;;9.77;19.77;100901.50;10300362;28;20253;-87
2022/03/05 15:54:20;;;;;;;9.87;6.50;;;;;;;10.76;18.54;100894.84;10309800;28;20254;-87
2022/03/05 15:59:23;;;;;;;9.30;6.47;;;;;;;10.01;19.55;100901.03;10321955;28;20225;-85
2022/03/05 16:04:25;;;;;;;10.43;5.77;;;;;;;9.34;19.92;100905.00;10336262;28;20233;-86
2022/03/05 16:09:27;;;;;;;9.60;7.00;;;;;;;10.38;18.98;100891.91;10330599;28;20249;-85
2022/03/05 16:14:30;;;;;;;10.77;6.20;;;;;;;10.13;19.90;100903.22;10328303;28;20319;-87
2022/03/05 16:19:35;;;;;;;10.77;6.23;;;;;;;10.21;19.74;100905.22;10332825;28;20230;-82
2022/03/05 16:24:39;;;;;;;9.40;5.80;;;;;;;9.55;20.48;100904.44;10328443;28;20230;-85
2022/03/05 16:29:41;;;;;;;9.07;6.10;;;;;;;9.09;20.87;100916.19;10329360;28;20253;-84
2022/03/05 16:34:44;;;;;;;8.53;6.00;;;;;;;8.78;21.19;100919.00;10314697;28;20287;-83
2022/03/05 16:39:49;;;;;;;9.40;6.43;;;;;;;8.93;21.23;100913.78;10334795;28;20201;-86
2022/03/05 16:44:51;;;;;;;9.50;6.77;;;;;;;8.65;22.10;100918.75;10333918;28;20573;-82
2022/03/05 16:49:55;;;;;;;11.80;7.33;;;;;;;8.14;22.61;100933.25;10332176;28;20313;-87
2022/03/05 16:54:58;;;;;;;11.63;7.57;;;;;;;7.60;24.14;100928.53;10315547;28;20210;-89
2022/03/05 17:00:02;;;;;;;10.70;7.07;;;;;;;8.14;23.69;100929.59;10329681;28;20225;-85
2022/03/05 17:05:06;;;;;;;15.37;8.57;;;;;;;8.25;23.90;100928.19;10332217;28;20244;-85
2022/03/05 17:10:10;;;;;;;13.40;8.27;;;;;;;8.83;23.47;100932.97;10342872;28;20327;-88
2022/03/05 17:15:13;;;;;;;13.80;8.77;;;;;;;8.10;25.18;100937.00;10345155;28;20591;-84
2022/03/05 17:20:16;;;;;;;12.20;9.03;;;;;;;7.31;26.49;100942.06;10332097;28;20242;-80
2022/03/05 17:25:19;;;;;;;13.47;8.83;;;;;;;7.30;26.49;100946.03;10349150;28;20295;-80
2022/03/05 17:30:22;;;;;;;12.67;8.90;;;;;;;7.76;26.13;100949.56;10346071;28;20242;-82
2022/03/05 17:35:24;;;;;;;13.93;8.70;;;;;;;7.69;26.42;100949.16;10341296;28;20225;-78
2022/03/05 17:40:26;;;;;;;12.93;8.90;;;;;;;7.90;26.10;100958.84;10365559;28;20245;-87
2022/03/05 17:45:28;;;;;;;14.93;8.20;;;;;;;7.51;27.07;100975.41;10336832;28;20232;-80
2022/03/05 17:50:31;;;;;;;14.03;9.10;;;;;;;7.51;26.70;100976.22;10333199;28;20240;-81
2022/03/05 17:55:33;;;;;;;15.10;9.03;;;;;;;7.20;27.11;100978.00;10355085;28;20232;-84
2022/03/05 18:00:40;;;;;;;14.30;10.13;;;;;;;7.78;26.67;100971.78;10356481;28;20546;-80
2022/03/05 18:05:44;;;;;;;15.47;10.30;;;;;;;6.59;28.04;100990.25;10342128;28;20237;-79
2022/03/05 18:10:47;;;;;;;13.63;9.47;;;;;;;7.34;26.68;100981.66;10359265;28;20282;-80
2022/03/05 18:15:49;;;;;;;14.73;9.43;;;;;;;7.25;26.94;100987.16;10362422;28;20237;-85
2022/03/05 18:20:52;;;;;;;15.13;9.10;;;;;;;6.60;28.26;100991.09;10356625;28;20201;-79
2022/03/05 18:25:54;;;;;;;15.47;9.00;;;;;;;7.66;26.91;100991.97;10354279;28;20209;-80
2022/03/05 18:30:57;;;;;;;15.10;9.90;;;;;;;7.56;26.80;101000.63;10336910;28;20260;-80
2022/03/05 18:35:59;;;;;;;13.90;9.03;;;;;;;7.31;27.26;101009.56;10359852;28;20233;-78
2022/03/05 18:41:01;;;;;;;14.37;9.70;;;;;;;6.99;27.08;101011.25;10357027;28;20232;-81
2022/03/05 18:46:04;;;;;;;14.83;10.10;;;;;;;6.02;28.36;101017.53;10353741;28;20233;-85
2022/03/05 18:51:07;;;;;;;14.50;9.67;;;;;;;7.11;27.25;101022.84;10346831;28;20225;-86
2022/03/05 18:56:09;;;;;;;17.90;9.90;;;;;;;7.33;26.95;101026.97;10365026;28;20205;-81
2022/03/05 19:01:12;;;;;;;14.90;10.10;;;;;;;6.88;28.07;101030.28;10350317;28;20271;-81
2022/03/05 19:06:18;;;;;;;16.03;9.90;;;;;;;7.13;27.30;101029.00;10351132;28;20233;-89
2022/03/05 19:11:21;;;;;;;18.80;10.80;;;;;;;6.98;27.79;101032.06;10354557;28;20275;-89
2022/03/05 19:16:26;;;;;;;18.03;10.00;;;;;;;6.02;28.18;101030.72;10355056;28;20241;-85
2022/03/05 19:21:30;;;;;;;16.43;11.03;;;;;;;7.43;27.37;101024.81;10362790;28;20229;-87
2022/03/05 19:26:32;;;;;;;17.17;10.63;;;;;;;6.06;29.24;101034.59;10341279;28;20221;-88
2022/03/05 19:31:36;;;;;;;16.97;10.77;;;;;;;6.82;28.25;101030.69;10337492;28;20194;-89
2022/03/05 19:36:40;;;;;;;13.73;9.63;;;;;;;5.69;30.22;101047.38;10339520;28;20182;-87
2022/03/05 19:41:43;;;;;;;17.73;10.90;;;;;;;6.50;28.22;101046.31;10324585;28;20189;-89
2022/03/05 19:46:48;;;;;;;15.10;10.07;;;;;;;6.51;28.31;101056.41;10340990;28;20205;-85
2022/03/05 19:51:51;;;;;;;18.83;11.30;;;;;;;6.78;28.09;101046.47;10360230;28;20194;-87
2022/03/05 19:56:55;;;;;;;17.07;10.70;;;;;;;6.85;28.05;101055.34;10297463;28;20202;-87
2022/03/05 20:01:58;;;;;;;16.37;10.83;;;;;;;6.40;28.94;101065.28;10321413;28;20252;-87
2022/03/05 20:07:02;;;;;;;16.97;10.87;;;;;;;5.51;29.82;101059.34;10345286;28;20495;-88
2022/03/05 20:12:06;;;;;;;20.07;11.27;;;;;;;5.96;29.49;101074.00;10327858;28;20206;-89
2022/03/05 20:17:10;;;;;;;18.20;11.07;;;;;;;5.89;29.62;101079.16;10344000;28;20250;-83
2022/03/05 20:22:14;;;;;;;14.30;10.70;;;;;;;5.74;29.95;101078.19;10342257;28;20198;-88
2022/03/05 20:27:19;;;;;;;15.77;10.60;;;;;;;5.32;31.00;101078.03;10342007;28;20685;-90
2022/03/05 20:32:21;;;;;;;16.63;11.30;;;;;;;5.11;31.00;101086.66;10313951;28;20268;-82
2022/03/05 20:37:35;;;;;;;17.63;11.57;;;;;;;4.95;31.37;101087.91;10312128;28;20234;-90
2022/03/05 20:42:37;;;;;;;18.93;11.10;;;;;;;5.00;31.26;101096.28;10326766;28;20319;-87
2022/03/05 20:47:40;;;;;;;18.57;12.00;;;;;;;4.61;32.04;101098.25;10308701;28;20409;-87
2022/03/05 20:52:43;;;;;;;18.57;11.77;;;;;;;4.80;31.73;101104.81;10325794;28;20256;-88
2022/03/05 20:57:47;;;;;;;20.17;11.80;;;;;;;4.79;31.58;101110.69;10328691;28;20264;-88
2022/03/05 21:02:53;;;;;;;18.57;10.97;;;;;;;4.67;31.92;101119.47;10311869;28;20280;-89
2022/03/05 21:08:06;;;;;;;20.47;12.00;;;;;;;4.83;31.66;101121.03;10311284;28;20315;-86
2022/03/05 21:13:08;;;;;;;19.10;11.37;;;;;;;4.78;31.43;101126.66;10328144;28;20248;-84
2022/03/05 21:18:21;;;;;;;15.57;10.77;;;;;;;4.70;31.51;101127.28;10340862;28;20225;-88
2022/03/05 21:23:31;;;;;;;23.67;14.03;;;;;;;4.44;31.88;101125.72;10333502;28;20198;-85
2022/03/05 21:28:34;;;;;;;19.77;12.10;;;;;;;4.49;31.97;101129.34;10331905;28;20638;-87
2022/03/05 21:33:36;;;;;;;19.40;11.93;;;;;;;4.40;32.20;101125.47;10332988;28;20237;-84
2022/03/05 21:38:41;;;;;;;21.97;13.20;;;;;;;4.33;32.34;101120.19;10329758;28;20222;-85
2022/03/05 21:43:50;;;;;;;22.03;13.40;;;;;;;4.22;32.53;101132.56;10330633;28;20587;-84
2022/03/05 21:48:54;;;;;;;22.37;13.53;;;;;;;4.11;32.68;101139.34;10310456;28;21022;-81
2022/03/05 21:53:57;;;;;;;21.43;13.37;;;;;;;4.00;33.07;101144.09;10328026;28;20229;-80
2022/03/05 21:58:59;;;;;;;20.30;12.43;;;;;;;3.93;32.98;101151.13;10326471;28;20237;-78
2022/03/05 22:04:04;;;;;;;21.47;13.23;;;;;;;3.83;33.03;101151.16;10324952;28;20249;-86
2022/03/05 22:09:07;;;;;;;21.97;12.60;;;;;;;3.62;33.60;101153.97;10328633;28;20338;-80
2022/03/05 22:14:29;;;;;;;23.17;12.60;;;;;;;3.44;33.88;101160.16;10324470;28;20261;-80
2022/03/05 22:19:34;;;;;;;19.73;12.40;;;;;;;3.47;33.89;101161.56;10325740;28;20233;-88
2022/03/05 22:24:46;;;;;;;24.37;14.13;;;;;;;3.42;33.70;101158.75;10324811;28;20268;-81
2022/03/05 22:29:54;;;;;;;22.47;13.77;;;;;;;3.72;33.50;101157.91;10325632;28;20885;-88
2022/03/05 22:34:56;;;;;;;21.57;14.27;;;;;;;3.25;34.40;101164.63;10320885;28;20233;-81
2022/03/05 22:39:59;;;;;;;21.80;13.13;;;;;;;3.26;34.26;101166.31;10297519;28;20226;-80
2022/03/05 22:45:03;;;;;;;20.77;13.40;;;;;;;3.12;34.54;101167.94;10324157;28;20232;-82
2022/03/05 22:50:06;;;;;;;23.30;13.73;;;;;;;3.05;35.01;101181.34;10305966;28;20250;-86
2022/03/05 22:55:11;;;;;;;21.07;12.70;;;;;;;2.95;34.63;101183.00;10306443;28;20551;-81
2022/03/05 23:00:39;;;;;;;23.63;13.80;;;;;;;2.99;34.83;101189.72;10322169;28;20602;-80
2022/03/05 23:05:42;;;;;;;20.03;12.97;;;;;;;2.92;35.07;101185.53;10326984;28;20685;-80
2022/03/05 23:10:44;;;;;;;19.73;12.73;;;;;;;2.79;35.22;101192.47;10306834;28;20261;-78